createdAt,value
2023-04-10T00:00:57.419Z,5.40
2023-04-10T00:03:27.596Z,5.10
2023-04-10T00:05:57.410Z,5.40
2023-04-10T00:08:26.907Z,5.30
2023-04-10T00:10:57.081Z,5.00
2023-04-10T00:13:25.863Z,5.23
2023-04-10T00:15:55.971Z,5.07
2023-04-10T00:18:24.476Z,5.27
2023-04-10T00:20:53.033Z,5.30
2023-04-10T00:23:21.425Z,5.60
2023-04-10T00:25:49.939Z,5.63
2023-04-10T00:28:18.410Z,6.03
2023-04-10T00:30:46.827Z,5.93
2023-04-10T00:33:16.633Z,5.70
2023-04-10T00:35:45.343Z,5.63
2023-04-10T00:38:14.437Z,6.27
2023-04-10T00:40:43.066Z,6.27
2023-04-10T00:43:12.065Z,6.27
2023-04-10T00:45:41.795Z,6.23
2023-04-10T00:48:10.315Z,5.70
2023-04-10T00:50:41.086Z,5.93
2023-04-10T00:53:09.700Z,6.40
2023-04-10T00:55:38.613Z,6.00
2023-04-10T00:58:08.031Z,6.37
2023-04-10T01:00:36.592Z,6.40
2023-04-10T01:03:05.532Z,6.10
2023-04-10T01:05:45.335Z,6.07
2023-04-10T01:08:24.590Z,6.27
2023-04-10T01:11:01.971Z,5.67
2023-04-10T01:13:39.344Z,6.33
2023-04-10T01:16:15.687Z,5.67
2023-04-10T01:18:52.074Z,6.17
2023-04-10T01:21:24.587Z,6.10
2023-04-10T01:24:09.286Z,5.40
2023-04-10T01:27:12.408Z,5.90
2023-04-10T01:29:47.984Z,5.60
2023-04-10T01:32:21.995Z,5.50
2023-04-10T01:34:54.697Z,5.50
2023-04-10T01:37:28.848Z,5.00
2023-04-10T01:40:01.480Z,5.83
2023-04-10T01:42:34.103Z,5.83
2023-04-10T01:45:06.995Z,5.40
2023-04-10T01:47:35.862Z,5.00
2023-04-10T01:50:06.487Z,5.00
2023-04-10T01:52:36.772Z,5.37
2023-04-10T01:55:15.611Z,5.47
2023-04-10T01:57:49.189Z,5.10
2023-04-10T02:00:20.129Z,4.97
2023-04-10T02:02:48.954Z,5.40
2023-04-10T02:05:18.172Z,5.60
2023-04-10T02:07:54.157Z,5.00
2023-04-10T02:10:31.742Z,4.93
2023-04-10T02:13:07.762Z,5.37
2023-04-10T02:15:40.749Z,4.53
2023-04-10T02:18:10.106Z,4.87
2023-04-10T02:20:38.815Z,5.47
2023-04-10T02:23:07.395Z,5.10
2023-04-10T02:25:36.796Z,4.83
2023-04-10T02:28:06.110Z,4.90
2023-04-10T02:30:34.998Z,4.80
2023-04-10T02:33:05.242Z,5.20
2023-04-10T02:35:34.794Z,5.07
2023-04-10T02:38:05.059Z,4.70
2023-04-10T02:40:38.019Z,4.40
2023-04-10T02:43:17.089Z,4.43
2023-04-10T02:45:46.495Z,4.13
2023-04-10T02:48:22.032Z,4.30
2023-04-10T02:50:58.807Z,4.47
2023-04-10T02:53:29.477Z,4.43
2023-04-10T02:56:01.182Z,4.80
2023-04-10T02:58:31.593Z,4.20
2023-04-10T03:01:01.669Z,4.50
2023-04-10T03:03:42.458Z,4.37
2023-04-10T03:06:11.580Z,4.20
2023-04-10T03:08:42.312Z,4.10
2023-04-10T03:11:10.664Z,4.17
2023-04-10T03:13:39.365Z,4.43
2023-04-10T03:16:08.865Z,4.33
2023-04-10T03:18:37.574Z,4.57
2023-04-10T03:21:08.937Z,4.50
2023-04-10T03:23:37.895Z,4.43
2023-04-10T03:26:07.381Z,4.30
2023-04-10T03:28:39.620Z,4.40
2023-04-10T03:31:09.804Z,4.77
2023-04-10T03:33:38.436Z,4.50
2023-04-10T03:36:10.076Z,4.13
2023-04-10T03:38:38.383Z,4.63
2023-04-10T03:41:08.403Z,4.10
2023-04-10T03:43:37.300Z,4.03
2023-04-10T03:46:07.384Z,4.00
2023-04-10T03:48:42.245Z,4.13
2023-04-10T03:51:13.833Z,4.47
2023-04-10T03:53:42.358Z,3.87
2023-04-10T03:56:15.837Z,4.43
2023-04-10T03:58:44.853Z,4.23
2023-04-10T04:01:14.854Z,5.13
2023-04-10T04:03:58.609Z,4.90
2023-04-10T04:06:58.093Z,5.23
2023-04-10T04:09:50.072Z,5.10
2023-04-10T04:12:46.036Z,5.23
2023-04-10T04:15:43.752Z,5.33
2023-04-10T04:18:24.036Z,5.50
2023-04-10T04:21:12.447Z,4.53
2023-04-10T04:24:00.970Z,4.93
2023-04-10T04:26:37.921Z,5.10
2023-04-10T04:29:31.017Z,4.27
2023-04-10T04:32:14.890Z,4.30
2023-04-10T04:35:04.911Z,4.17
2023-04-10T04:37:46.867Z,4.00
2023-04-10T04:40:35.605Z,3.77
2023-04-10T04:43:42.545Z,3.40
2023-04-10T04:46:28.951Z,3.70
2023-04-10T04:49:13.050Z,3.03
2023-04-10T04:51:51.521Z,3.20
2023-04-10T04:54:49.395Z,3.13
2023-04-10T04:57:38.996Z,3.10
2023-04-10T05:00:20.899Z,3.00
2023-04-10T05:03:24.820Z,2.87
2023-04-10T05:06:12.123Z,3.37
2023-04-10T05:09:06.837Z,3.30
2023-04-10T05:11:54.585Z,3.13
2023-04-10T05:14:48.404Z,3.20
2023-04-10T05:17:55.250Z,2.80
2023-04-10T05:20:52.967Z,3.20
2023-04-10T05:23:47.623Z,2.53
2023-04-10T05:26:23.800Z,2.90
2023-04-10T05:29:15.449Z,2.93
2023-04-10T05:32:11.338Z,3.00
2023-04-10T05:34:59.967Z,3.50
2023-04-10T05:37:51.859Z,3.90
2023-04-10T05:40:49.767Z,4.17
2023-04-10T05:43:36.823Z,4.03
2023-04-10T05:46:11.727Z,4.20
2023-04-10T05:49:08.039Z,3.87
2023-04-10T05:51:54.184Z,4.23
2023-04-10T05:54:25.572Z,4.23
2023-04-10T05:57:11.049Z,4.03
2023-04-10T05:59:54.750Z,4.20
2023-04-10T06:02:49.977Z,4.60
2023-04-10T06:05:28.863Z,4.57
2023-04-10T06:08:02.024Z,4.40
2023-04-10T06:10:31.086Z,4.83
2023-04-10T06:12:59.729Z,3.97
2023-04-10T06:15:31.535Z,3.80
2023-04-10T06:18:00.232Z,3.73
2023-04-10T06:20:30.867Z,4.00
2023-04-10T06:23:00.757Z,3.67
2023-04-10T06:25:29.650Z,3.50
2023-04-10T06:27:59.976Z,3.70
2023-04-10T06:30:28.746Z,3.70
2023-04-10T06:32:57.466Z,3.50
2023-04-10T06:35:26.172Z,2.87
2023-04-10T06:37:56.247Z,2.87
2023-04-10T06:40:24.769Z,2.97
2023-04-10T06:42:53.299Z,2.57
2023-04-10T06:45:31.247Z,2.43
2023-04-10T06:47:59.663Z,2.20
2023-04-10T06:50:28.455Z,2.63
2023-04-10T06:53:00.101Z,2.43
2023-04-10T06:55:28.559Z,2.40
2023-04-10T06:57:57.333Z,2.30
2023-04-10T07:00:26.074Z,2.43
2023-04-10T07:02:54.526Z,2.43
2023-04-10T07:05:23.720Z,2.33
2023-04-10T07:07:52.170Z,2.37
2023-04-10T07:10:22.053Z,2.40
2023-04-10T07:12:50.413Z,2.10
2023-04-10T07:15:19.019Z,2.00
2023-04-10T07:17:50.333Z,2.00
2023-04-10T07:20:18.929Z,1.97
2023-04-10T07:22:47.333Z,1.80
2023-04-10T07:25:15.701Z,2.30
2023-04-10T07:27:45.699Z,1.80
2023-04-10T07:30:14.522Z,1.90
2023-04-10T07:32:43.160Z,1.70
2023-04-10T07:35:11.920Z,1.93
2023-04-10T07:37:42.237Z,1.43
2023-04-10T07:40:12.115Z,1.80
2023-04-10T07:42:40.538Z,1.77
2023-04-10T07:45:12.506Z,1.70
2023-04-10T07:47:41.033Z,1.60
2023-04-10T07:50:10.560Z,1.70
2023-04-10T07:52:39.335Z,1.63
2023-04-10T07:55:08.605Z,1.53
2023-04-10T07:57:37.533Z,1.87
2023-04-10T08:00:07.652Z,1.80
2023-04-10T08:02:46.845Z,1.70
2023-04-10T08:05:15.716Z,1.70
2023-04-10T08:07:44.625Z,1.80
2023-04-10T08:10:13.325Z,1.40
2023-04-10T08:12:41.632Z,1.50
2023-04-10T08:15:11.303Z,1.57
2023-04-10T08:17:39.949Z,1.67
2023-04-10T08:20:12.641Z,1.90
2023-04-10T08:22:41.130Z,1.70
2023-04-10T08:25:10.800Z,1.77
2023-04-10T08:27:39.162Z,1.57
2023-04-10T08:30:09.266Z,1.40
2023-04-10T08:32:37.814Z,1.60
2023-04-10T08:35:07.560Z,1.60
2023-04-10T08:37:38.138Z,1.40
2023-04-10T08:40:07.945Z,1.50
2023-04-10T08:42:37.703Z,1.50
2023-04-10T08:45:07.978Z,1.43
2023-04-10T08:47:40.001Z,1.50
2023-04-10T08:50:11.560Z,1.40
2023-04-10T08:52:45.691Z,1.50
2023-04-10T08:55:15.687Z,1.37
2023-04-10T08:57:54.036Z,1.47
2023-04-10T09:00:27.698Z,1.50
2023-04-10T09:02:58.467Z,1.50
2023-04-10T09:05:29.110Z,1.40
2023-04-10T09:07:59.009Z,1.50
2023-04-10T09:10:30.301Z,1.57
2023-04-10T09:12:58.793Z,1.40
2023-04-10T09:15:27.467Z,1.70
2023-04-10T09:17:58.462Z,1.27
2023-04-10T09:20:30.439Z,1.50
2023-04-10T09:23:00.204Z,1.47
2023-04-10T09:25:34.997Z,1.60
2023-04-10T09:28:05.175Z,1.30
2023-04-10T09:30:39.290Z,1.20
2023-04-10T09:33:28.027Z,1.40
2023-04-10T09:35:59.935Z,0.93
2023-04-10T09:38:30.812Z,1.40
2023-04-10T09:41:08.880Z,1.03
2023-04-10T09:43:38.968Z,1.33
2023-04-10T09:46:08.287Z,1.10
2023-04-10T09:48:37.407Z,1.40
2023-04-10T09:51:06.814Z,1.20
2023-04-10T09:53:51.011Z,1.27
2023-04-10T09:56:19.842Z,1.30
2023-04-10T09:58:48.821Z,1.40
2023-04-10T10:01:18.328Z,1.37
2023-04-10T10:03:47.695Z,1.20
2023-04-10T10:06:16.403Z,1.20
2023-04-10T10:08:46.778Z,1.20
2023-04-10T10:11:18.191Z,1.00
2023-04-10T10:13:52.428Z,1.03
2023-04-10T10:16:24.177Z,0.97
2023-04-10T10:19:02.658Z,1.00
2023-04-10T10:21:34.388Z,1.10
2023-04-10T10:24:09.882Z,1.20
2023-04-10T10:26:41.925Z,1.20
2023-04-10T10:29:11.353Z,1.10
2023-04-10T10:31:40.074Z,1.20
2023-04-10T10:34:09.726Z,1.10
2023-04-10T10:36:38.864Z,1.30
2023-04-10T10:39:28.489Z,1.20
2023-04-10T10:42:05.214Z,1.30
2023-04-10T10:44:44.254Z,1.10
2023-04-10T10:47:19.786Z,1.20
2023-04-10T10:50:00.485Z,1.00
2023-04-10T10:52:39.853Z,1.00
2023-04-10T10:55:43.315Z,1.40
2023-04-10T10:58:13.272Z,1.10
2023-04-10T11:01:10.509Z,1.20
2023-04-10T11:03:40.725Z,1.20
2023-04-10T11:06:12.666Z,1.23
2023-04-10T11:08:47.140Z,0.90
2023-04-10T11:11:20.438Z,1.20
2023-04-10T11:14:18.425Z,1.30
2023-04-10T11:16:50.229Z,1.27
2023-04-10T11:19:22.784Z,1.20
2023-04-10T11:22:09.519Z,1.20
2023-04-10T11:25:02.564Z,1.10
2023-04-10T11:27:49.287Z,1.27
2023-04-10T11:30:34.427Z,1.20
2023-04-10T11:33:05.964Z,1.13
2023-04-10T11:35:34.903Z,1.10
2023-04-10T11:38:19.443Z,0.87
2023-04-10T11:41:04.165Z,1.10
2023-04-10T11:43:35.388Z,1.20
2023-04-10T11:46:07.575Z,1.30
2023-04-10T11:48:38.447Z,1.40
2023-04-10T11:51:12.188Z,1.50
2023-04-10T11:53:41.415Z,1.30
2023-04-10T11:56:22.629Z,1.43
2023-04-10T11:58:54.980Z,1.30
2023-04-10T12:01:24.526Z,1.30
2023-04-10T12:03:53.134Z,1.33
2023-04-10T12:06:22.297Z,1.40
2023-04-10T12:08:51.305Z,1.43
2023-04-10T12:11:21.714Z,1.27
2023-04-10T12:13:55.274Z,1.30
2023-04-10T12:16:24.749Z,1.27
2023-04-10T12:18:54.052Z,1.23
2023-04-10T12:21:23.666Z,1.40
2023-04-10T12:23:52.934Z,1.20
2023-04-10T12:26:22.841Z,1.40
2023-04-10T12:28:57.432Z,1.30
2023-04-10T12:31:30.549Z,1.23
2023-04-10T12:33:59.265Z,1.10
2023-04-10T12:36:30.284Z,1.20
2023-04-10T12:39:00.248Z,1.27
2023-04-10T12:41:31.286Z,1.20
2023-04-10T12:44:13.159Z,1.10
2023-04-10T12:46:44.672Z,1.17
2023-04-10T12:49:15.844Z,1.00
2023-04-10T12:51:49.713Z,1.00
2023-04-10T12:54:32.264Z,1.40
2023-04-10T12:57:01.442Z,1.10
2023-04-10T12:59:32.357Z,1.00
2023-04-10T13:02:01.185Z,1.00
2023-04-10T13:04:31.704Z,0.87
2023-04-10T13:07:00.306Z,1.00
2023-04-10T13:09:28.678Z,1.20
2023-04-10T13:11:57.666Z,0.90
2023-04-10T13:14:26.239Z,0.80
2023-04-10T13:16:56.444Z,0.90
2023-04-10T13:19:25.074Z,1.07
2023-04-10T13:21:53.415Z,1.00
2023-04-10T13:24:21.871Z,1.03
2023-04-10T13:26:51.325Z,1.00
2023-04-10T13:29:20.044Z,0.90
2023-04-10T13:31:48.714Z,1.00
2023-04-10T13:34:18.620Z,1.00
2023-04-10T13:36:47.088Z,1.10
2023-04-10T13:39:15.606Z,0.90
2023-04-10T13:41:43.976Z,0.93
2023-04-10T13:44:12.432Z,1.07
2023-04-10T13:46:40.987Z,1.20
2023-04-10T13:49:09.773Z,1.27
2023-04-10T13:51:39.792Z,1.20
2023-04-10T13:54:08.774Z,1.23
2023-04-10T13:56:37.536Z,1.03
2023-04-10T13:59:06.352Z,1.20
2023-04-10T14:01:34.914Z,1.10
2023-04-10T14:04:03.866Z,0.80
2023-04-10T14:06:32.444Z,0.93
2023-04-10T14:09:02.291Z,1.03
2023-04-10T14:11:31.009Z,1.10
2023-04-10T14:13:59.429Z,1.10
2023-04-10T14:16:28.265Z,0.90
2023-04-10T14:18:56.904Z,1.23
2023-04-10T14:21:26.077Z,1.27
2023-04-10T14:23:54.473Z,1.20
2023-04-10T14:26:24.849Z,1.00
2023-04-10T14:28:53.708Z,1.20
2023-04-10T14:31:22.245Z,0.97
2023-04-10T14:33:50.967Z,1.00
2023-04-10T14:36:20.101Z,1.10
2023-04-10T14:38:48.707Z,1.30
2023-04-10T14:41:17.350Z,1.23
2023-04-10T14:43:47.310Z,1.10
2023-04-10T14:46:16.130Z,1.00
2023-04-10T14:48:45.139Z,1.20
2023-04-10T14:51:13.702Z,1.03
2023-04-10T14:53:42.371Z,1.37
2023-04-10T14:56:14.757Z,1.20
2023-04-10T14:58:43.888Z,1.20
2023-04-10T15:01:14.472Z,0.97
2023-04-10T15:03:42.983Z,1.30
2023-04-10T15:06:11.542Z,1.10
2023-04-10T15:08:40.010Z,1.20
2023-04-10T15:11:08.611Z,1.00
2023-04-10T15:13:37.792Z,1.10
2023-04-10T15:16:08.006Z,1.50
2023-04-10T15:18:37.742Z,1.20
2023-04-10T15:21:07.304Z,1.10
2023-04-10T15:23:35.800Z,1.10
2023-04-10T15:26:04.537Z,1.33
2023-04-10T15:28:33.845Z,1.07
2023-04-10T15:31:02.690Z,1.60
2023-04-10T15:33:31.158Z,1.10
2023-04-10T15:36:01.010Z,0.90
2023-04-10T15:38:29.642Z,1.20
2023-04-10T15:40:58.312Z,1.27
2023-04-10T15:43:27.617Z,1.00
2023-04-10T15:45:56.310Z,0.90
2023-04-10T15:48:24.880Z,1.20
2023-04-10T15:50:53.316Z,1.20
2023-04-10T15:53:23.155Z,1.20
2023-04-10T15:55:51.538Z,1.17
2023-04-10T15:58:20.233Z,1.30
2023-04-10T16:00:48.714Z,1.20
2023-04-10T16:03:17.304Z,1.30
2023-04-10T16:05:45.880Z,1.00
2023-04-10T16:08:14.576Z,1.23
2023-04-10T16:10:44.292Z,1.27
2023-04-10T16:13:12.808Z,1.00
2023-04-10T16:15:41.824Z,1.30
2023-04-10T16:18:10.750Z,1.27
2023-04-10T16:20:39.360Z,1.27
2023-04-10T16:23:07.743Z,1.30
2023-04-10T16:25:36.692Z,1.20
2023-04-10T16:28:08.110Z,1.10
2023-04-10T16:30:39.557Z,1.00
2023-04-10T16:33:08.039Z,1.30
2023-04-10T16:35:36.642Z,1.10
2023-04-10T16:38:05.380Z,1.10
2023-04-10T16:40:34.017Z,1.10
2023-04-10T16:43:02.742Z,0.90
2023-04-10T16:45:32.597Z,0.80
2023-04-10T16:48:01.269Z,1.10
2023-04-10T16:50:29.710Z,1.03
2023-04-10T16:52:59.254Z,0.90
2023-04-10T16:55:27.806Z,0.83
2023-04-10T16:57:56.264Z,0.80
2023-04-10T17:00:24.632Z,1.00
2023-04-10T17:02:54.481Z,0.90
2023-04-10T17:05:23.124Z,1.00
2023-04-10T17:07:51.876Z,0.83
2023-04-10T17:10:20.785Z,0.70
2023-04-10T17:12:49.148Z,1.10
2023-04-10T17:15:17.678Z,1.00
2023-04-10T17:17:46.209Z,1.10
2023-04-10T17:20:16.258Z,1.27
2023-04-10T17:22:44.611Z,1.10
2023-04-10T17:25:13.398Z,1.03
2023-04-10T17:27:42.032Z,1.10
2023-04-10T17:30:13.605Z,1.20
2023-04-10T17:32:42.190Z,1.00
2023-04-10T17:35:10.908Z,1.17
2023-04-10T17:37:41.104Z,1.00
2023-04-10T17:40:12.385Z,1.03
2023-04-10T17:42:40.911Z,1.30
2023-04-10T17:45:10.623Z,1.10
2023-04-10T17:47:40.035Z,1.10
2023-04-10T17:50:10.684Z,0.90
2023-04-10T17:52:40.686Z,1.10
2023-04-10T17:55:10.373Z,0.80
2023-04-10T17:57:38.689Z,0.90
2023-04-10T18:00:10.324Z,1.00
2023-04-10T18:02:38.887Z,1.07
2023-04-10T18:05:08.619Z,1.07
2023-04-10T18:07:37.021Z,1.07
2023-04-10T18:10:10.606Z,1.13
2023-04-10T18:12:39.842Z,1.17
2023-04-10T18:15:14.196Z,1.10
2023-04-10T18:17:42.760Z,1.00
2023-04-10T18:20:12.261Z,0.90
2023-04-10T18:22:40.812Z,1.03
2023-04-10T18:25:14.342Z,1.07
2023-04-10T18:27:51.457Z,1.00
2023-04-10T18:30:24.094Z,0.90
2023-04-10T18:32:52.751Z,0.87
2023-04-10T18:35:21.558Z,1.10
2023-04-10T18:37:49.951Z,0.90
2023-04-10T18:40:22.127Z,1.20
2023-04-10T18:42:50.527Z,0.93
2023-04-10T18:45:19.793Z,1.10
2023-04-10T18:47:52.577Z,1.10
2023-04-10T18:50:21.012Z,1.13
2023-04-10T18:52:49.303Z,0.93
2023-04-10T18:55:19.725Z,0.90
2023-04-10T18:57:48.190Z,1.20
2023-04-10T19:00:17.991Z,1.43
2023-04-10T19:02:46.371Z,1.10
2023-04-10T19:05:16.661Z,0.93
2023-04-10T19:07:56.732Z,1.27
2023-04-10T19:10:34.035Z,1.20
2023-04-10T19:13:02.453Z,1.20
2023-04-10T19:15:31.460Z,1.17
2023-04-10T19:18:01.235Z,1.17
2023-04-10T19:20:49.839Z,1.23
2023-04-10T19:23:18.000Z,1.07
2023-04-10T19:25:48.017Z,1.50
2023-04-10T19:28:16.688Z,1.30
2023-04-10T19:30:45.202Z,1.50
2023-04-10T19:33:13.583Z,1.10
2023-04-10T19:35:42.118Z,1.20
2023-04-10T19:38:10.701Z,1.10
2023-04-10T19:40:39.481Z,1.20
2023-04-10T19:43:09.339Z,1.40
2023-04-10T19:45:38.844Z,1.40
2023-04-10T19:48:09.667Z,1.20
2023-04-10T19:50:38.162Z,1.17
2023-04-10T19:53:07.245Z,1.20
2023-04-10T19:55:36.085Z,1.40
2023-04-10T19:58:04.547Z,1.40
2023-04-10T20:00:34.448Z,1.50
2023-04-10T20:03:02.967Z,1.40
2023-04-10T20:05:31.485Z,1.10
2023-04-10T20:07:59.935Z,1.03
2023-04-10T20:10:28.521Z,1.30
2023-04-10T20:12:56.916Z,1.20
2023-04-10T20:15:25.702Z,1.30
2023-04-10T20:17:55.874Z,1.30
2023-04-10T20:20:24.454Z,1.10
2023-04-10T20:22:53.007Z,1.10
2023-04-10T20:25:21.419Z,1.10
2023-04-10T20:27:49.805Z,1.13
2023-04-10T20:30:18.336Z,0.90
2023-04-10T20:32:46.971Z,0.90
2023-04-10T20:35:16.924Z,0.80
2023-04-10T20:37:45.642Z,0.70
2023-04-10T20:40:14.382Z,0.50
2023-04-10T20:42:44.868Z,0.50
2023-04-10T20:45:14.226Z,0.60
2023-04-10T20:47:42.646Z,0.73
2023-04-10T20:50:13.152Z,0.50
2023-04-10T20:52:43.162Z,0.47
2023-04-10T20:55:12.332Z,0.60
2023-04-10T20:57:40.714Z,0.40
2023-04-10T21:00:11.085Z,0.50
2023-04-10T21:02:39.838Z,0.60
2023-04-10T21:05:09.672Z,0.60
2023-04-10T21:07:38.146Z,0.50
2023-04-10T21:10:09.060Z,0.40
2023-04-10T21:12:37.526Z,0.40
2023-04-10T21:15:07.028Z,0.30
2023-04-10T21:17:35.625Z,0.40
2023-04-10T21:20:04.558Z,0.33
2023-04-10T21:22:32.911Z,0.23
2023-04-10T21:25:01.441Z,0.40
2023-04-10T21:27:31.274Z,0.40
2023-04-10T21:29:59.613Z,0.23
2023-04-10T21:32:27.991Z,0.43
2023-04-10T21:34:56.468Z,0.30
2023-04-10T21:37:25.433Z,0.30
2023-04-10T21:39:53.909Z,0.30
2023-04-10T21:42:22.433Z,0.40
2023-04-10T21:44:52.209Z,0.40
2023-04-10T21:47:20.964Z,0.30
2023-04-10T21:49:51.987Z,0.30
2023-04-10T21:52:20.283Z,0.40
2023-04-10T21:54:48.867Z,0.40
2023-04-10T21:57:17.362Z,0.40
2023-04-10T21:59:45.797Z,0.40
2023-04-10T22:02:16.067Z,0.30
2023-04-10T22:04:53.909Z,0.40
2023-04-10T22:07:25.149Z,0.30
2023-04-10T22:09:53.623Z,0.33
2023-04-10T22:12:22.067Z,0.40
2023-04-10T22:14:50.626Z,0.50
2023-04-10T22:17:20.582Z,0.70
2023-04-10T22:19:49.224Z,0.50
2023-04-10T22:22:18.743Z,0.40
2023-04-10T22:24:48.194Z,0.40
2023-04-10T22:27:16.966Z,0.70
2023-04-10T22:29:50.141Z,0.57
2023-04-10T22:32:26.353Z,0.40
2023-04-10T22:34:54.757Z,0.67
2023-04-10T22:37:23.210Z,0.40
2023-04-10T22:39:51.564Z,0.43
2023-04-10T22:42:23.341Z,0.27
2023-04-10T22:44:51.687Z,0.50
2023-04-10T22:47:20.202Z,0.20
2023-04-10T22:49:50.196Z,0.30
2023-04-10T22:52:18.799Z,0.30
2023-04-10T22:54:47.062Z,0.30
2023-04-10T22:57:15.813Z,0.47
2023-04-10T22:59:44.389Z,0.30
2023-04-10T23:02:13.276Z,0.30
2023-04-10T23:04:41.850Z,0.40
2023-04-10T23:07:13.892Z,0.30
2023-04-10T23:09:42.358Z,0.30
2023-04-10T23:12:10.728Z,0.30
2023-04-10T23:14:39.384Z,0.20
2023-04-10T23:17:08.061Z,0.30
2023-04-10T23:19:36.432Z,0.30
2023-04-10T23:22:04.863Z,0.20
2023-04-10T23:24:34.627Z,0.40
2023-04-10T23:27:03.511Z,0.40
2023-04-10T23:29:34.985Z,0.23
2023-04-10T23:32:03.419Z,0.37
2023-04-10T23:34:31.793Z,0.50
2023-04-10T23:37:00.246Z,0.30
2023-04-10T23:39:28.556Z,0.30
2023-04-10T23:41:58.321Z,0.30
2023-04-10T23:44:26.802Z,0.47
2023-04-10T23:46:55.407Z,0.40
2023-04-10T23:49:23.892Z,0.40
2023-04-10T23:51:55.329Z,0.40
2023-04-10T23:54:23.707Z,0.20
2023-04-10T23:56:52.337Z,0.30
2023-04-10T23:59:22.508Z,0.40
